sensor_id;sensor_type;location;lat;lon;timestamp;P1;durP1;ratioP1;P2;durP2;ratioP2
12445;SDS011;6287;50.984;7.022;2023-02-03T00:01:54;6.03;;;3.87;;
12445;SDS011;6287;50.984;7.022;2023-02-03T00:04:22;6.47;;;3.47;;
12445;SDS011;6287;50.984;7.022;2023-02-03T00:06:48;9.73;;;4.30;;
12445;SDS011;6287;50.984;7.022;2023-02-03T00:09:14;8.17;;;3.57;;
12445;SDS011;6287;50.984;7.022;2023-02-03T00:11:40;7.03;;;3.80;;
12445;SDS011;6287;50.984;7.022;2023-02-03T00:14:06;7.23;;;3.50;;
12445;SDS011;6287;50.984;7.022;2023-02-03T00:16:32;4.60;;;3.37;;
12445;SDS011;6287;50.984;7.022;2023-02-03T00:18:58;6.60;;;3.90;;
12445;SDS011;6287;50.984;7.022;2023-02-03T00:21:24;5.97;;;3.67;;
12445;SDS011;6287;50.984;7.022;2023-02-03T00:23:50;6.63;;;3.87;;
12445;SDS011;6287;50.984;7.022;2023-02-03T00:26:16;5.47;;;3.10;;
12445;SDS011;6287;50.984;7.022;2023-02-03T00:28:42;5.17;;;3.60;;
12445;SDS011;6287;50.984;7.022;2023-02-03T00:31:15;7.97;;;3.50;;
12445;SDS011;6287;50.984;7.022;2023-02-03T00:33:42;5.90;;;3.33;;
12445;SDS011;6287;50.984;7.022;2023-02-03T00:36:08;4.97;;;3.40;;
12445;SDS011;6287;50.984;7.022;2023-02-03T00:38:34;4.97;;;3.23;;
12445;SDS011;6287;50.984;7.022;2023-02-03T00:41:00;7.53;;;3.27;;
12445;SDS011;6287;50.984;7.022;2023-02-03T00:43:28;9.80;;;3.00;;
12445;SDS011;6287;50.984;7.022;2023-02-03T00:45:54;7.20;;;3.10;;
12445;SDS011;6287;50.984;7.022;2023-02-03T00:48:22;4.17;;;2.83;;
12445;SDS011;6287;50.984;7.022;2023-02-03T00:50:48;4.83;;;2.80;;
12445;SDS011;6287;50.984;7.022;2023-02-03T00:53:16;3.40;;;2.80;;
12445;SDS011;6287;50.984;7.022;2023-02-03T00:55:44;3.73;;;2.90;;
12445;SDS011;6287;50.984;7.022;2023-02-03T00:58:10;8.27;;;3.50;;
12445;SDS011;6287;50.984;7.022;2023-02-03T01:00:35;4.17;;;2.77;;
12445;SDS011;6287;50.984;7.022;2023-02-03T01:03:03;3.63;;;2.67;;
12445;SDS011;6287;50.984;7.022;2023-02-03T01:05:29;5.90;;;2.73;;
12445;SDS011;6287;50.984;7.022;2023-02-03T01:07:55;4.73;;;2.70;;
12445;SDS011;6287;50.984;7.022;2023-02-03T01:10:20;2.63;;;2.30;;
12445;SDS011;6287;50.984;7.022;2023-02-03T01:12:46;7.70;;;2.30;;
12445;SDS011;6287;50.984;7.022;2023-02-03T01:15:14;3.07;;;2.17;;
12445;SDS011;6287;50.984;7.022;2023-02-03T01:17:42;3.43;;;2.43;;
12445;SDS011;6287;50.984;7.022;2023-02-03T01:20:08;6.57;;;2.50;;
12445;SDS011;6287;50.984;7.022;2023-02-03T01:22:38;6.10;;;2.30;;
12445;SDS011;6287;50.984;7.022;2023-02-03T01:25:06;4.13;;;2.23;;
12445;SDS011;6287;50.984;7.022;2023-02-03T01:27:32;4.13;;;2.10;;
12445;SDS011;6287;50.984;7.022;2023-02-03T01:29:58;3.63;;;1.93;;
12445;SDS011;6287;50.984;7.022;2023-02-03T01:32:26;3.03;;;1.90;;
12445;SDS011;6287;50.984;7.022;2023-02-03T01:34:52;3.80;;;2.00;;
12445;SDS011;6287;50.984;7.022;2023-02-03T01:37:20;5.03;;;2.40;;
12445;SDS011;6287;50.984;7.022;2023-02-03T01:39:46;4.27;;;2.30;;
12445;SDS011;6287;50.984;7.022;2023-02-03T01:42:12;4.87;;;1.97;;
12445;SDS011;6287;50.984;7.022;2023-02-03T01:44:48;5.53;;;2.20;;
12445;SDS011;6287;50.984;7.022;2023-02-03T01:47:23;4.43;;;2.50;;
12445;SDS011;6287;50.984;7.022;2023-02-03T01:52:40;4.57;;;2.27;;
12445;SDS011;6287;50.984;7.022;2023-02-03T01:55:11;3.10;;;1.83;;
12445;SDS011;6287;50.984;7.022;2023-02-03T01:57:54;3.87;;;2.20;;
12445;SDS011;6287;50.984;7.022;2023-02-03T02:00:44;5.10;;;2.00;;
12445;SDS011;6287;50.984;7.022;2023-02-03T02:03:10;7.00;;;2.20;;
12445;SDS011;6287;50.984;7.022;2023-02-03T02:05:47;3.87;;;2.70;;
12445;SDS011;6287;50.984;7.022;2023-02-03T02:08:36;4.17;;;1.97;;
12445;SDS011;6287;50.984;7.022;2023-02-03T02:11:04;2.50;;;1.70;;
12445;SDS011;6287;50.984;7.022;2023-02-03T02:13:31;4.27;;;1.70;;
12445;SDS011;6287;50.984;7.022;2023-02-03T02:18:50;5.03;;;2.20;;
12445;SDS011;6287;50.984;7.022;2023-02-03T02:30:12;3.57;;;1.80;;
12445;SDS011;6287;50.984;7.022;2023-02-03T02:41:09;2.87;;;1.80;;
12445;SDS011;6287;50.984;7.022;2023-02-03T02:44:09;4.83;;;1.77;;
12445;SDS011;6287;50.984;7.022;2023-02-03T02:46:34;2.90;;;1.77;;
12445;SDS011;6287;50.984;7.022;2023-02-03T02:49:13;2.80;;;1.40;;
12445;SDS011;6287;50.984;7.022;2023-02-03T02:51:44;2.97;;;1.53;;
12445;SDS011;6287;50.984;7.022;2023-02-03T02:54:15;1.50;;;1.40;;
12445;SDS011;6287;50.984;7.022;2023-02-03T02:56:44;3.97;;;2.17;;
12445;SDS011;6287;50.984;7.022;2023-02-03T02:59:13;1.93;;;1.30;;
12445;SDS011;6287;50.984;7.022;2023-02-03T03:01:39;3.67;;;1.73;;
12445;SDS011;6287;50.984;7.022;2023-02-03T03:04:05;4.10;;;1.70;;
12445;SDS011;6287;50.984;7.022;2023-02-03T03:06:42;3.83;;;1.90;;
12445;SDS011;6287;50.984;7.022;2023-02-03T03:09:17;3.07;;;1.77;;
12445;SDS011;6287;50.984;7.022;2023-02-03T03:11:49;3.23;;;1.90;;
12445;SDS011;6287;50.984;7.022;2023-02-03T03:14:21;2.40;;;1.90;;
12445;SDS011;6287;50.984;7.022;2023-02-03T03:16:58;4.00;;;2.17;;
12445;SDS011;6287;50.984;7.022;2023-02-03T03:19:33;2.17;;;1.97;;
12445;SDS011;6287;50.984;7.022;2023-02-03T03:22:06;5.57;;;2.07;;
12445;SDS011;6287;50.984;7.022;2023-02-03T03:24:38;5.67;;;1.90;;
12445;SDS011;6287;50.984;7.022;2023-02-03T03:27:12;2.67;;;1.70;;
12445;SDS011;6287;50.984;7.022;2023-02-03T03:32:18;4.30;;;1.70;;
12445;SDS011;6287;50.984;7.022;2023-02-03T03:34:47;3.37;;;1.70;;
12445;SDS011;6287;50.984;7.022;2023-02-03T03:39:54;5.03;;;1.90;;
12445;SDS011;6287;50.984;7.022;2023-02-03T03:48:15;5.27;;;1.80;;
12445;SDS011;6287;50.984;7.022;2023-02-03T03:50:50;3.83;;;2.20;;
12445;SDS011;6287;50.984;7.022;2023-02-03T03:53:42;4.30;;;2.10;;
12445;SDS011;6287;50.984;7.022;2023-02-03T03:56:14;5.60;;;1.97;;
12445;SDS011;6287;50.984;7.022;2023-02-03T03:58:44;6.80;;;2.30;;
12445;SDS011;6287;50.984;7.022;2023-02-03T04:01:16;3.33;;;1.90;;
12445;SDS011;6287;50.984;7.022;2023-02-03T04:03:49;3.60;;;2.20;;
12445;SDS011;6287;50.984;7.022;2023-02-03T04:06:19;4.53;;;2.13;;
12445;SDS011;6287;50.984;7.022;2023-02-03T04:08:47;3.50;;;2.00;;
12445;SDS011;6287;50.984;7.022;2023-02-03T04:11:13;2.33;;;1.70;;
12445;SDS011;6287;50.984;7.022;2023-02-03T04:13:58;5.03;;;2.20;;
12445;SDS011;6287;50.984;7.022;2023-02-03T04:16:26;4.10;;;2.00;;
12445;SDS011;6287;50.984;7.022;2023-02-03T04:18:54;3.03;;;2.40;;
12445;SDS011;6287;50.984;7.022;2023-02-03T04:21:22;3.70;;;1.67;;
12445;SDS011;6287;50.984;7.022;2023-02-03T04:23:47;2.17;;;1.80;;
12445;SDS011;6287;50.984;7.022;2023-02-03T04:26:16;2.87;;;2.00;;
12445;SDS011;6287;50.984;7.022;2023-02-03T04:28:46;3.97;;;1.87;;
12445;SDS011;6287;50.984;7.022;2023-02-03T04:31:14;5.23;;;1.83;;
12445;SDS011;6287;50.984;7.022;2023-02-03T04:33:42;3.90;;;1.80;;
12445;SDS011;6287;50.984;7.022;2023-02-03T04:36:07;3.07;;;1.70;;
12445;SDS011;6287;50.984;7.022;2023-02-03T04:38:36;3.53;;;1.93;;
12445;SDS011;6287;50.984;7.022;2023-02-03T04:41:01;3.33;;;1.70;;
12445;SDS011;6287;50.984;7.022;2023-02-03T04:43:29;1.47;;;1.43;;
12445;SDS011;6287;50.984;7.022;2023-02-03T04:46:00;3.23;;;1.97;;
12445;SDS011;6287;50.984;7.022;2023-02-03T04:48:26;4.43;;;1.63;;
12445;SDS011;6287;50.984;7.022;2023-02-03T04:50:51;2.97;;;1.63;;
12445;SDS011;6287;50.984;7.022;2023-02-03T04:53:17;2.60;;;1.47;;
12445;SDS011;6287;50.984;7.022;2023-02-03T04:55:46;3.53;;;1.30;;
12445;SDS011;6287;50.984;7.022;2023-02-03T04:58:12;3.90;;;1.60;;
12445;SDS011;6287;50.984;7.022;2023-02-03T05:00:38;1.53;;;1.40;;
12445;SDS011;6287;50.984;7.022;2023-02-03T05:03:03;2.57;;;1.60;;
12445;SDS011;6287;50.984;7.022;2023-02-03T05:05:29;1.97;;;1.43;;
12445;SDS011;6287;50.984;7.022;2023-02-03T05:07:59;1.80;;;1.30;;
12445;SDS011;6287;50.984;7.022;2023-02-03T05:10:25;3.50;;;1.60;;
12445;SDS011;6287;50.984;7.022;2023-02-03T05:12:50;2.30;;;1.60;;
12445;SDS011;6287;50.984;7.022;2023-02-03T05:15:16;3.00;;;1.80;;
12445;SDS011;6287;50.984;7.022;2023-02-03T05:17:44;2.40;;;1.70;;
12445;SDS011;6287;50.984;7.022;2023-02-03T05:20:12;5.57;;;2.00;;
12445;SDS011;6287;50.984;7.022;2023-02-03T05:22:37;3.03;;;2.10;;
12445;SDS011;6287;50.984;7.022;2023-02-03T05:25:03;3.17;;;1.47;;
12445;SDS011;6287;50.984;7.022;2023-02-03T05:27:29;2.67;;;1.50;;
12445;SDS011;6287;50.984;7.022;2023-02-03T05:29:57;3.07;;;2.00;;
12445;SDS011;6287;50.984;7.022;2023-02-03T05:32:25;4.37;;;2.90;;
12445;SDS011;6287;50.984;7.022;2023-02-03T05:34:51;3.57;;;1.90;;
12445;SDS011;6287;50.984;7.022;2023-02-03T05:37:16;4.27;;;1.90;;
12445;SDS011;6287;50.984;7.022;2023-02-03T05:39:42;3.23;;;2.00;;
12445;SDS011;6287;50.984;7.022;2023-02-03T05:42:07;2.47;;;2.20;;
12445;SDS011;6287;50.984;7.022;2023-02-03T05:44:33;2.30;;;1.70;;
12445;SDS011;6287;50.984;7.022;2023-02-03T05:46:58;1.93;;;1.63;;
12445;SDS011;6287;50.984;7.022;2023-02-03T05:49:24;4.50;;;2.00;;
12445;SDS011;6287;50.984;7.022;2023-02-03T05:51:55;2.50;;;1.43;;
12445;SDS011;6287;50.984;7.022;2023-02-03T05:54:23;3.10;;;1.83;;
12445;SDS011;6287;50.984;7.022;2023-02-03T05:56:51;3.93;;;1.60;;
12445;SDS011;6287;50.984;7.022;2023-02-03T05:59:19;3.03;;;1.23;;
12445;SDS011;6287;50.984;7.022;2023-02-03T06:01:45;3.33;;;1.30;;
12445;SDS011;6287;50.984;7.022;2023-02-03T06:04:13;1.93;;;1.47;;
12445;SDS011;6287;50.984;7.022;2023-02-03T06:06:39;2.70;;;1.00;;
12445;SDS011;6287;50.984;7.022;2023-02-03T06:09:07;2.57;;;1.37;;
12445;SDS011;6287;50.984;7.022;2023-02-03T06:11:33;3.07;;;1.13;;
12445;SDS011;6287;50.984;7.022;2023-02-03T06:14:01;2.63;;;1.57;;
12445;SDS011;6287;50.984;7.022;2023-02-03T06:16:27;1.87;;;1.53;;
12445;SDS011;6287;50.984;7.022;2023-02-03T06:18:54;2.80;;;1.10;;
12445;SDS011;6287;50.984;7.022;2023-02-03T06:21:23;5.00;;;1.40;;
12445;SDS011;6287;50.984;7.022;2023-02-03T06:23:56;2.53;;;1.00;;
12445;SDS011;6287;50.984;7.022;2023-02-03T06:26:24;1.83;;;0.90;;
12445;SDS011;6287;50.984;7.022;2023-02-03T06:28:50;1.20;;;1.10;;
12445;SDS011;6287;50.984;7.022;2023-02-03T06:31:18;4.03;;;1.37;;
12445;SDS011;6287;50.984;7.022;2023-02-03T06:33:46;1.73;;;0.90;;
12445;SDS011;6287;50.984;7.022;2023-02-03T06:36:17;1.00;;;1.00;;
12445;SDS011;6287;50.984;7.022;2023-02-03T06:38:42;1.67;;;0.87;;
12445;SDS011;6287;50.984;7.022;2023-02-03T06:41:13;3.33;;;1.17;;
12445;SDS011;6287;50.984;7.022;2023-02-03T06:43:41;5.63;;;1.27;;
12445;SDS011;6287;50.984;7.022;2023-02-03T06:46:08;5.77;;;1.10;;
12445;SDS011;6287;50.984;7.022;2023-02-03T06:48:34;0.97;;;0.93;;
12445;SDS011;6287;50.984;7.022;2023-02-03T06:51:00;1.87;;;0.93;;
12445;SDS011;6287;50.984;7.022;2023-02-03T06:53:26;3.57;;;1.10;;
12445;SDS011;6287;50.984;7.022;2023-02-03T06:55:51;2.10;;;1.00;;
12445;SDS011;6287;50.984;7.022;2023-02-03T06:58:19;2.10;;;1.00;;
12445;SDS011;6287;50.984;7.022;2023-02-03T07:00:45;2.40;;;1.10;;
12445;SDS011;6287;50.984;7.022;2023-02-03T07:03:13;1.90;;;1.03;;
12445;SDS011;6287;50.984;7.022;2023-02-03T07:05:41;3.27;;;1.20;;
12445;SDS011;6287;50.984;7.022;2023-02-03T07:08:11;1.43;;;0.90;;
12445;SDS011;6287;50.984;7.022;2023-02-03T07:10:37;2.30;;;0.90;;
12445;SDS011;6287;50.984;7.022;2023-02-03T07:13:05;2.20;;;0.90;;
12445;SDS011;6287;50.984;7.022;2023-02-03T07:15:36;1.80;;;0.90;;
12445;SDS011;6287;50.984;7.022;2023-02-03T07:18:02;1.80;;;0.63;;
12445;SDS011;6287;50.984;7.022;2023-02-03T07:20:28;1.27;;;0.83;;
12445;SDS011;6287;50.984;7.022;2023-02-03T07:22:54;1.03;;;1.00;;
12445;SDS011;6287;50.984;7.022;2023-02-03T07:25:20;2.07;;;1.60;;
12445;SDS011;6287;50.984;7.022;2023-02-03T07:27:49;2.77;;;0.93;;
12445;SDS011;6287;50.984;7.022;2023-02-03T07:30:19;2.20;;;0.90;;
12445;SDS011;6287;50.984;7.022;2023-02-03T07:32:51;3.40;;;1.20;;
12445;SDS011;6287;50.984;7.022;2023-02-03T07:35:21;4.53;;;1.23;;
12445;SDS011;6287;50.984;7.022;2023-02-03T07:37:47;2.47;;;0.80;;
12445;SDS011;6287;50.984;7.022;2023-02-03T07:40:13;1.70;;;0.83;;
12445;SDS011;6287;50.984;7.022;2023-02-03T07:42:43;4.30;;;1.00;;
12445;SDS011;6287;50.984;7.022;2023-02-03T07:45:11;1.00;;;0.90;;
12445;SDS011;6287;50.984;7.022;2023-02-03T07:47:40;2.83;;;1.00;;
12445;SDS011;6287;50.984;7.022;2023-02-03T07:50:09;3.87;;;1.10;;
12445;SDS011;6287;50.984;7.022;2023-02-03T07:52:37;2.23;;;0.80;;
12445;SDS011;6287;50.984;7.022;2023-02-03T07:55:03;1.80;;;1.03;;
12445;SDS011;6287;50.984;7.022;2023-02-03T07:57:32;3.03;;;1.30;;
12445;SDS011;6287;50.984;7.022;2023-02-03T07:59:57;1.70;;;1.10;;
12445;SDS011;6287;50.984;7.022;2023-02-03T08:02:23;1.73;;;0.90;;
12445;SDS011;6287;50.984;7.022;2023-02-03T08:04:51;3.00;;;1.00;;
12445;SDS011;6287;50.984;7.022;2023-02-03T08:07:16;2.57;;;0.97;;
12445;SDS011;6287;50.984;7.022;2023-02-03T08:09:42;2.33;;;1.00;;
12445;SDS011;6287;50.984;7.022;2023-02-03T08:12:08;3.10;;;1.10;;
12445;SDS011;6287;50.984;7.022;2023-02-03T08:14:33;1.97;;;0.97;;
12445;SDS011;6287;50.984;7.022;2023-02-03T08:16:59;1.13;;;0.73;;
12445;SDS011;6287;50.984;7.022;2023-02-03T08:19:27;1.63;;;1.00;;
12445;SDS011;6287;50.984;7.022;2023-02-03T08:21:53;3.23;;;0.93;;
12445;SDS011;6287;50.984;7.022;2023-02-03T08:24:23;2.07;;;0.93;;
12445;SDS011;6287;50.984;7.022;2023-02-03T08:26:50;1.90;;;0.90;;
12445;SDS011;6287;50.984;7.022;2023-02-03T08:29:17;1.93;;;0.97;;
12445;SDS011;6287;50.984;7.022;2023-02-03T08:31:42;0.73;;;0.73;;
12445;SDS011;6287;50.984;7.022;2023-02-03T08:34:10;3.13;;;1.10;;
12445;SDS011;6287;50.984;7.022;2023-02-03T08:36:36;0.80;;;0.80;;
12445;SDS011;6287;50.984;7.022;2023-02-03T08:39:04;2.37;;;1.13;;
12445;SDS011;6287;50.984;7.022;2023-02-03T08:41:30;2.70;;;0.80;;
12445;SDS011;6287;50.984;7.022;2023-02-03T08:43:58;1.67;;;0.90;;
12445;SDS011;6287;50.984;7.022;2023-02-03T08:46:25;2.00;;;1.10;;
12445;SDS011;6287;50.984;7.022;2023-02-03T08:48:53;1.17;;;0.93;;
12445;SDS011;6287;50.984;7.022;2023-02-03T08:51:20;2.53;;;1.20;;
12445;SDS011;6287;50.984;7.022;2023-02-03T08:53:48;1.53;;;0.90;;
12445;SDS011;6287;50.984;7.022;2023-02-03T08:56:14;1.40;;;1.20;;
12445;SDS011;6287;50.984;7.022;2023-02-03T08:58:40;1.63;;;0.80;;
12445;SDS011;6287;50.984;7.022;2023-02-03T09:01:14;1.17;;;0.90;;
12445;SDS011;6287;50.984;7.022;2023-02-03T09:03:40;1.03;;;1.00;;
12445;SDS011;6287;50.984;7.022;2023-02-03T09:06:06;1.80;;;1.03;;
12445;SDS011;6287;50.984;7.022;2023-02-03T09:08:35;1.67;;;1.43;;
12445;SDS011;6287;50.984;7.022;2023-02-03T09:11:01;1.20;;;1.10;;
12445;SDS011;6287;50.984;7.022;2023-02-03T09:13:27;2.33;;;1.20;;
12445;SDS011;6287;50.984;7.022;2023-02-03T09:15:52;4.63;;;0.97;;
12445;SDS011;6287;50.984;7.022;2023-02-03T09:18:20;2.33;;;1.03;;
12445;SDS011;6287;50.984;7.022;2023-02-03T09:20:46;3.43;;;1.13;;
12445;SDS011;6287;50.984;7.022;2023-02-03T09:23:14;1.30;;;1.00;;
12445;SDS011;6287;50.984;7.022;2023-02-03T09:25:39;2.73;;;1.33;;
12445;SDS011;6287;50.984;7.022;2023-02-03T09:28:05;2.60;;;1.10;;
12445;SDS011;6287;50.984;7.022;2023-02-03T09:30:30;2.70;;;1.20;;
12445;SDS011;6287;50.984;7.022;2023-02-03T09:32:56;0.97;;;0.97;;
12445;SDS011;6287;50.984;7.022;2023-02-03T09:35:23;2.17;;;1.27;;
12445;SDS011;6287;50.984;7.022;2023-02-03T09:37:50;1.33;;;1.23;;
12445;SDS011;6287;50.984;7.022;2023-02-03T09:40:22;2.63;;;1.47;;
12445;SDS011;6287;50.984;7.022;2023-02-03T09:42:59;1.60;;;1.00;;
12445;SDS011;6287;50.984;7.022;2023-02-03T09:45:34;3.13;;;1.10;;
12445;SDS011;6287;50.984;7.022;2023-02-03T09:48:03;2.27;;;0.93;;
12445;SDS011;6287;50.984;7.022;2023-02-03T09:50:37;2.63;;;1.50;;
12445;SDS011;6287;50.984;7.022;2023-02-03T09:53:09;2.60;;;1.00;;
12445;SDS011;6287;50.984;7.022;2023-02-03T09:56:01;3.07;;;1.20;;
12445;SDS011;6287;50.984;7.022;2023-02-03T09:58:28;1.53;;;1.30;;
12445;SDS011;6287;50.984;7.022;2023-02-03T10:00:58;4.10;;;1.47;;
12445;SDS011;6287;50.984;7.022;2023-02-03T10:22:47;1.30;;;1.20;;
12445;SDS011;6287;50.984;7.022;2023-02-03T10:25:44;2.37;;;1.60;;
12445;SDS011;6287;50.984;7.022;2023-02-03T10:28:14;4.60;;;1.80;;
12445;SDS011;6287;50.984;7.022;2023-02-03T10:30:44;2.80;;;1.97;;
12445;SDS011;6287;50.984;7.022;2023-02-03T10:33:20;1.83;;;1.73;;
12445;SDS011;6287;50.984;7.022;2023-02-03T10:36:35;3.53;;;1.90;;
12445;SDS011;6287;50.984;7.022;2023-02-03T10:41:40;2.27;;;1.87;;
12445;SDS011;6287;50.984;7.022;2023-02-03T10:44:08;2.47;;;1.57;;
12445;SDS011;6287;50.984;7.022;2023-02-03T10:46:38;2.87;;;1.83;;
12445;SDS011;6287;50.984;7.022;2023-02-03T10:49:05;1.53;;;1.43;;
12445;SDS011;6287;50.984;7.022;2023-02-03T10:51:39;1.90;;;1.73;;
12445;SDS011;6287;50.984;7.022;2023-02-03T10:54:24;1.83;;;1.70;;
12445;SDS011;6287;50.984;7.022;2023-02-03T10:57:02;2.23;;;1.40;;
12445;SDS011;6287;50.984;7.022;2023-02-03T10:59:30;1.87;;;1.63;;
12445;SDS011;6287;50.984;7.022;2023-02-03T11:02:09;1.50;;;1.37;;
12445;SDS011;6287;50.984;7.022;2023-02-03T11:07:37;3.03;;;1.60;;
12445;SDS011;6287;50.984;7.022;2023-02-03T11:10:03;4.00;;;1.80;;
12445;SDS011;6287;50.984;7.022;2023-02-03T11:12:53;1.73;;;1.57;;
12445;SDS011;6287;50.984;7.022;2023-02-03T11:16:23;2.37;;;2.03;;
12445;SDS011;6287;50.984;7.022;2023-02-03T11:23:45;3.13;;;2.23;;
12445;SDS011;6287;50.984;7.022;2023-02-03T11:26:20;5.33;;;1.97;;
12445;SDS011;6287;50.984;7.022;2023-02-03T11:28:52;3.07;;;2.77;;
12445;SDS011;6287;50.984;7.022;2023-02-03T11:31:24;3.50;;;3.00;;
12445;SDS011;6287;50.984;7.022;2023-02-03T11:33:56;3.57;;;3.07;;
12445;SDS011;6287;50.984;7.022;2023-02-03T11:36:31;5.90;;;3.60;;
12445;SDS011;6287;50.984;7.022;2023-02-03T11:41:42;4.80;;;3.77;;
12445;SDS011;6287;50.984;7.022;2023-02-03T11:44:15;4.33;;;3.70;;
12445;SDS011;6287;50.984;7.022;2023-02-03T11:46:52;5.63;;;3.83;;
12445;SDS011;6287;50.984;7.022;2023-02-03T11:52:34;4.87;;;3.70;;
12445;SDS011;6287;50.984;7.022;2023-02-03T12:00:28;6.47;;;4.10;;
12445;SDS011;6287;50.984;7.022;2023-02-03T12:15:05;5.70;;;4.30;;
12445;SDS011;6287;50.984;7.022;2023-02-03T12:28:44;5.20;;;4.00;;
12445;SDS011;6287;50.984;7.022;2023-02-03T12:34:38;9.27;;;4.17;;
12445;SDS011;6287;50.984;7.022;2023-02-03T12:37:15;5.90;;;4.03;;
12445;SDS011;6287;50.984;7.022;2023-02-03T12:40:11;7.87;;;4.77;;
12445;SDS011;6287;50.984;7.022;2023-02-03T12:43:05;7.23;;;4.87;;
12445;SDS011;6287;50.984;7.022;2023-02-03T12:45:55;4.70;;;4.20;;
12445;SDS011;6287;50.984;7.022;2023-02-03T12:48:26;6.53;;;4.40;;
12445;SDS011;6287;50.984;7.022;2023-02-03T12:51:03;5.33;;;3.97;;
12445;SDS011;6287;50.984;7.022;2023-02-03T12:53:38;6.80;;;4.83;;
12445;SDS011;6287;50.984;7.022;2023-02-03T12:56:11;4.73;;;4.27;;
12445;SDS011;6287;50.984;7.022;2023-02-03T12:58:53;8.27;;;4.70;;
12445;SDS011;6287;50.984;7.022;2023-02-03T13:01:30;5.43;;;4.67;;
12445;SDS011;6287;50.984;7.022;2023-02-03T13:04:05;9.97;;;5.30;;
12445;SDS011;6287;50.984;7.022;2023-02-03T13:07:22;6.13;;;4.93;;
12445;SDS011;6287;50.984;7.022;2023-02-03T13:18:14;9.80;;;5.13;;
12445;SDS011;6287;50.984;7.022;2023-02-03T13:20:39;8.07;;;4.80;;
12445;SDS011;6287;50.984;7.022;2023-02-03T13:23:06;5.67;;;4.50;;
12445;SDS011;6287;50.984;7.022;2023-02-03T13:25:51;5.70;;;4.53;;
12445;SDS011;6287;50.984;7.022;2023-02-03T13:33:55;7.57;;;5.10;;
12445;SDS011;6287;50.984;7.022;2023-02-03T13:44:45;8.30;;;4.80;;
12445;SDS011;6287;50.984;7.022;2023-02-03T13:47:22;9.50;;;4.50;;
12445;SDS011;6287;50.984;7.022;2023-02-03T13:50:03;5.77;;;4.80;;
12445;SDS011;6287;50.984;7.022;2023-02-03T13:55:01;8.53;;;4.43;;
12445;SDS011;6287;50.984;7.022;2023-02-03T13:57:34;5.33;;;4.20;;
12445;SDS011;6287;50.984;7.022;2023-02-03T14:00:04;7.60;;;4.70;;
12445;SDS011;6287;50.984;7.022;2023-02-03T14:02:51;6.57;;;3.93;;
12445;SDS011;6287;50.984;7.022;2023-02-03T14:05:38;6.03;;;4.03;;
12445;SDS011;6287;50.984;7.022;2023-02-03T14:16:43;3.77;;;3.47;;
12445;SDS011;6287;50.984;7.022;2023-02-03T14:19:52;4.03;;;3.37;;
12445;SDS011;6287;50.984;7.022;2023-02-03T14:22:04;5.00;;;3.47;;
12445;SDS011;6287;50.984;7.022;2023-02-03T14:24:42;4.23;;;3.00;;
12445;SDS011;6287;50.984;7.022;2023-02-03T14:27:19;5.57;;;3.47;;
12445;SDS011;6287;50.984;7.022;2023-02-03T14:29:45;4.70;;;2.50;;
12445;SDS011;6287;50.984;7.022;2023-02-03T14:35:28;3.20;;;2.30;;
12445;SDS011;6287;50.984;7.022;2023-02-03T14:37:57;2.67;;;2.40;;
12445;SDS011;6287;50.984;7.022;2023-02-03T14:56:45;4.57;;;2.30;;
12445;SDS011;6287;50.984;7.022;2023-02-03T14:59:38;2.90;;;2.20;;
12445;SDS011;6287;50.984;7.022;2023-02-03T15:04:41;3.27;;;2.67;;
12445;SDS011;6287;50.984;7.022;2023-02-03T15:07:09;2.40;;;2.30;;
12445;SDS011;6287;50.984;7.022;2023-02-03T15:09:59;5.60;;;2.53;;
12445;SDS011;6287;50.984;7.022;2023-02-03T15:12:27;5.90;;;2.30;;
12445;SDS011;6287;50.984;7.022;2023-02-03T15:18:19;5.93;;;2.17;;
12445;SDS011;6287;50.984;7.022;2023-02-03T15:20:56;2.87;;;1.87;;
12445;SDS011;6287;50.984;7.022;2023-02-03T15:23:30;4.90;;;2.33;;
12445;SDS011;6287;50.984;7.022;2023-02-03T15:28:40;3.53;;;1.93;;
12445;SDS011;6287;50.984;7.022;2023-02-03T15:31:10;7.93;;;3.00;;
12445;SDS011;6287;50.984;7.022;2023-02-03T15:33:41;4.97;;;2.10;;
12445;SDS011;6287;50.984;7.022;2023-02-03T15:36:12;3.70;;;2.43;;
12445;SDS011;6287;50.984;7.022;2023-02-03T15:38:50;3.10;;;2.20;;
12445;SDS011;6287;50.984;7.022;2023-02-03T15:41:24;7.40;;;3.43;;
12445;SDS011;6287;50.984;7.022;2023-02-03T15:43:53;6.90;;;2.43;;
12445;SDS011;6287;50.984;7.022;2023-02-03T15:48:58;5.67;;;2.40;;
12445;SDS011;6287;50.984;7.022;2023-02-03T15:51:30;4.70;;;2.30;;
12445;SDS011;6287;50.984;7.022;2023-02-03T15:54:11;3.37;;;2.20;;
12445;SDS011;6287;50.984;7.022;2023-02-03T15:56:47;5.47;;;2.20;;
12445;SDS011;6287;50.984;7.022;2023-02-03T16:01:49;5.63;;;2.70;;
12445;SDS011;6287;50.984;7.022;2023-02-03T16:06:52;5.53;;;2.57;;
12445;SDS011;6287;50.984;7.022;2023-02-03T16:09:33;6.83;;;2.40;;
12445;SDS011;6287;50.984;7.022;2023-02-03T16:15:05;6.47;;;2.53;;
12445;SDS011;6287;50.984;7.022;2023-02-03T16:17:45;12.00;;;2.57;;
12445;SDS011;6287;50.984;7.022;2023-02-03T16:28:29;6.50;;;2.00;;
12445;SDS011;6287;50.984;7.022;2023-02-03T16:31:18;5.40;;;2.10;;
12445;SDS011;6287;50.984;7.022;2023-02-03T16:34:18;7.23;;;1.90;;
12445;SDS011;6287;50.984;7.022;2023-02-03T16:37:12;5.63;;;1.70;;
12445;SDS011;6287;50.984;7.022;2023-02-03T16:40:03;6.33;;;2.30;;
12445;SDS011;6287;50.984;7.022;2023-02-03T16:42:53;6.30;;;2.10;;
12445;SDS011;6287;50.984;7.022;2023-02-03T16:45:36;4.50;;;2.07;;
12445;SDS011;6287;50.984;7.022;2023-02-03T16:48:23;7.07;;;2.40;;
12445;SDS011;6287;50.984;7.022;2023-02-03T16:51:12;2.57;;;1.83;;
12445;SDS011;6287;50.984;7.022;2023-02-03T16:53:42;4.47;;;1.90;;
12445;SDS011;6287;50.984;7.022;2023-02-03T16:56:10;2.13;;;1.63;;
12445;SDS011;6287;50.984;7.022;2023-02-03T16:58:37;5.53;;;2.50;;
12445;SDS011;6287;50.984;7.022;2023-02-03T17:01:03;4.60;;;2.83;;
12445;SDS011;6287;50.984;7.022;2023-02-03T17:03:33;3.67;;;2.17;;
12445;SDS011;6287;50.984;7.022;2023-02-03T17:06:09;4.33;;;2.10;;
12445;SDS011;6287;50.984;7.022;2023-02-03T17:08:36;6.47;;;2.30;;
12445;SDS011;6287;50.984;7.022;2023-02-03T17:11:07;4.17;;;2.07;;
12445;SDS011;6287;50.984;7.022;2023-02-03T17:13:43;4.20;;;1.83;;
12445;SDS011;6287;50.984;7.022;2023-02-03T17:16:12;6.97;;;2.27;;
12445;SDS011;6287;50.984;7.022;2023-02-03T17:18:44;4.80;;;2.30;;
12445;SDS011;6287;50.984;7.022;2023-02-03T17:21:12;3.07;;;1.97;;
12445;SDS011;6287;50.984;7.022;2023-02-03T17:23:43;3.87;;;2.13;;
12445;SDS011;6287;50.984;7.022;2023-02-03T17:26:09;3.60;;;1.97;;
12445;SDS011;6287;50.984;7.022;2023-02-03T17:28:34;10.10;;;2.53;;
12445;SDS011;6287;50.984;7.022;2023-02-03T17:31:06;5.10;;;2.53;;
12445;SDS011;6287;50.984;7.022;2023-02-03T17:33:33;4.00;;;2.20;;
12445;SDS011;6287;50.984;7.022;2023-02-03T17:38:45;8.93;;;2.37;;
12445;SDS011;6287;50.984;7.022;2023-02-03T17:41:19;8.37;;;2.20;;
12445;SDS011;6287;50.984;7.022;2023-02-03T17:43:46;8.57;;;2.70;;
12445;SDS011;6287;50.984;7.022;2023-02-03T17:46:14;3.50;;;2.03;;
12445;SDS011;6287;50.984;7.022;2023-02-03T17:48:41;9.77;;;3.30;;
12445;SDS011;6287;50.984;7.022;2023-02-03T17:51:14;5.63;;;2.40;;
12445;SDS011;6287;50.984;7.022;2023-02-03T17:53:44;10.10;;;3.47;;
12445;SDS011;6287;50.984;7.022;2023-02-03T17:58:40;8.90;;;2.27;;
12445;SDS011;6287;50.984;7.022;2023-02-03T18:01:14;11.03;;;2.07;;
12445;SDS011;6287;50.984;7.022;2023-02-03T18:03:42;6.30;;;2.03;;
12445;SDS011;6287;50.984;7.022;2023-02-03T18:06:09;5.37;;;2.03;;
12445;SDS011;6287;50.984;7.022;2023-02-03T18:08:42;5.67;;;2.00;;
12445;SDS011;6287;50.984;7.022;2023-02-03T18:11:08;5.43;;;1.63;;
12445;SDS011;6287;50.984;7.022;2023-02-03T18:13:38;7.90;;;2.53;;
12445;SDS011;6287;50.984;7.022;2023-02-03T18:16:09;6.30;;;2.50;;
12445;SDS011;6287;50.984;7.022;2023-02-03T18:18:40;7.00;;;1.93;;
12445;SDS011;6287;50.984;7.022;2023-02-03T18:21:11;7.53;;;1.73;;
12445;SDS011;6287;50.984;7.022;2023-02-03T18:23:40;4.63;;;2.57;;
12445;SDS011;6287;50.984;7.022;2023-02-03T18:26:07;4.40;;;1.40;;
12445;SDS011;6287;50.984;7.022;2023-02-03T18:28:34;4.90;;;1.67;;
12445;SDS011;6287;50.984;7.022;2023-02-03T18:31:04;6.27;;;1.80;;